sensor_id;sensor_type;location;lat;lon;timestamp;P1;durP1;ratioP1;P2;durP2;ratioP2
80679;SDS011;70043;51.982;-8.514;2023-08-31T00:02:05;1.27;;;0.50;;
80679;SDS011;70043;51.982;-8.514;2023-08-31T00:04:39;3.20;;;0.88;;
80679;SDS011;70043;51.982;-8.514;2023-08-31T00:07:07;5.95;;;0.80;;
80679;SDS011;70043;51.982;-8.514;2023-08-31T00:09:36;2.85;;;0.77;;
80679;SDS011;70043;51.982;-8.514;2023-08-31T00:12:05;5.07;;;1.13;;
80679;SDS011;70043;51.982;-8.514;2023-08-31T00:14:33;3.33;;;0.65;;
80679;SDS011;70043;51.982;-8.514;2023-08-31T00:17:03;2.92;;;0.50;;
80679;SDS011;70043;51.982;-8.514;2023-08-31T00:19:31;1.20;;;0.55;;
80679;SDS011;70043;51.982;-8.514;2023-08-31T00:22:06;2.22;;;0.35;;
80679;SDS011;70043;51.982;-8.514;2023-08-31T00:24:37;1.77;;;0.40;;
80679;SDS011;70043;51.982;-8.514;2023-08-31T00:27:07;2.15;;;0.30;;
80679;SDS011;70043;51.982;-8.514;2023-08-31T00:29:38;0.88;;;0.40;;
80679;SDS011;70043;51.982;-8.514;2023-08-31T00:32:06;0.43;;;0.20;;
80679;SDS011;70043;51.982;-8.514;2023-08-31T00:34:36;1.25;;;0.50;;
80679;SDS011;70043;51.982;-8.514;2023-08-31T00:37:07;1.65;;;0.32;;
80679;SDS011;70043;51.982;-8.514;2023-08-31T00:39:36;0.70;;;0.35;;
80679;SDS011;70043;51.982;-8.514;2023-08-31T00:42:06;0.80;;;0.30;;
80679;SDS011;70043;51.982;-8.514;2023-08-31T00:44:34;1.13;;;0.40;;
80679;SDS011;70043;51.982;-8.514;2023-08-31T00:47:03;2.00;;;0.40;;
80679;SDS011;70043;51.982;-8.514;2023-08-31T00:49:31;0.98;;;0.40;;
80679;SDS011;70043;51.982;-8.514;2023-08-31T00:52:00;0.77;;;0.38;;
80679;SDS011;70043;51.982;-8.514;2023-08-31T00:54:32;0.50;;;0.30;;
80679;SDS011;70043;51.982;-8.514;2023-08-31T00:57:00;1.08;;;0.30;;
80679;SDS011;70043;51.982;-8.514;2023-08-31T00:59:29;0.65;;;0.20;;
80679;SDS011;70043;51.982;-8.514;2023-08-31T01:02:01;2.58;;;0.30;;
80679;SDS011;70043;51.982;-8.514;2023-08-31T01:04:33;0.30;;;0.22;;
80679;SDS011;70043;51.982;-8.514;2023-08-31T01:07:04;0.90;;;0.20;;
80679;SDS011;70043;51.982;-8.514;2023-08-31T01:09:39;0.60;;;0.15;;
80679;SDS011;70043;51.982;-8.514;2023-08-31T01:12:09;0.55;;;0.20;;
80679;SDS011;70043;51.982;-8.514;2023-08-31T01:14:40;0.20;;;0.10;;
80679;SDS011;70043;51.982;-8.514;2023-08-31T01:17:10;0.60;;;0.13;;
80679;SDS011;70043;51.982;-8.514;2023-08-31T01:19:48;0.32;;;0.20;;
80679;SDS011;70043;51.982;-8.514;2023-08-31T01:22:24;0.20;;;0.10;;
80679;SDS011;70043;51.982;-8.514;2023-08-31T01:24:56;0.38;;;0.20;;
80679;SDS011;70043;51.982;-8.514;2023-08-31T01:27:24;1.15;;;0.20;;
80679;SDS011;70043;51.982;-8.514;2023-08-31T01:29:54;0.47;;;0.20;;
80679;SDS011;70043;51.982;-8.514;2023-08-31T01:32:22;0.60;;;0.25;;
80679;SDS011;70043;51.982;-8.514;2023-08-31T01:34:53;0.25;;;0.10;;
80679;SDS011;70043;51.982;-8.514;2023-08-31T01:37:25;0.13;;;0.10;;
80679;SDS011;70043;51.982;-8.514;2023-08-31T01:39:58;0.40;;;0.10;;
80679;SDS011;70043;51.982;-8.514;2023-08-31T01:42:31;0.40;;;0.20;;
80679;SDS011;70043;51.982;-8.514;2023-08-31T01:45:00;0.30;;;0.10;;
80679;SDS011;70043;51.982;-8.514;2023-08-31T01:47:30;0.17;;;0.10;;
80679;SDS011;70043;51.982;-8.514;2023-08-31T01:49:58;0.88;;;0.20;;
80679;SDS011;70043;51.982;-8.514;2023-08-31T01:52:27;0.75;;;0.20;;
80679;SDS011;70043;51.982;-8.514;2023-08-31T01:54:59;1.35;;;0.45;;
80679;SDS011;70043;51.982;-8.514;2023-08-31T01:57:28;0.20;;;0.10;;
80679;SDS011;70043;51.982;-8.514;2023-08-31T01:59:56;0.30;;;0.10;;
80679;SDS011;70043;51.982;-8.514;2023-08-31T02:02:25;0.52;;;0.10;;
80679;SDS011;70043;51.982;-8.514;2023-08-31T02:04:53;0.00;;;0.00;;
80679;SDS011;70043;51.982;-8.514;2023-08-31T02:07:21;2.50;;;0.20;;
80679;SDS011;70043;51.982;-8.514;2023-08-31T02:09:50;0.20;;;0.10;;
80679;SDS011;70043;51.982;-8.514;2023-08-31T02:12:19;0.20;;;0.10;;
80679;SDS011;70043;51.982;-8.514;2023-08-31T02:14:47;0.10;;;0.00;;
80679;SDS011;70043;51.982;-8.514;2023-08-31T02:17:15;0.03;;;0.00;;
80679;SDS011;70043;51.982;-8.514;2023-08-31T02:19:44;0.35;;;0.00;;
80679;SDS011;70043;51.982;-8.514;2023-08-31T02:22:14;0.25;;;0.05;;
80679;SDS011;70043;51.982;-8.514;2023-08-31T02:24:42;0.20;;;0.10;;
80679;SDS011;70043;51.982;-8.514;2023-08-31T02:27:09;0.13;;;0.03;;
80679;SDS011;70043;51.982;-8.514;2023-08-31T02:29:38;0.52;;;0.17;;
80679;SDS011;70043;51.982;-8.514;2023-08-31T02:32:05;0.77;;;0.10;;
80679;SDS011;70043;51.982;-8.514;2023-08-31T02:34:33;0.10;;;0.08;;
80679;SDS011;70043;51.982;-8.514;2023-08-31T02:37:01;0.22;;;0.00;;
80679;SDS011;70043;51.982;-8.514;2023-08-31T02:39:30;0.00;;;0.00;;
80679;SDS011;70043;51.982;-8.514;2023-08-31T02:42:00;0.10;;;0.10;;
80679;SDS011;70043;51.982;-8.514;2023-08-31T02:44:29;0.40;;;0.10;;
80679;SDS011;70043;51.982;-8.514;2023-08-31T02:47:02;0.20;;;0.20;;
80679;SDS011;70043;51.982;-8.514;2023-08-31T02:49:29;0.10;;;0.00;;
80679;SDS011;70043;51.982;-8.514;2023-08-31T02:51:56;0.20;;;0.05;;
80679;SDS011;70043;51.982;-8.514;2023-08-31T02:54:22;0.10;;;0.10;;
80679;SDS011;70043;51.982;-8.514;2023-08-31T02:56:50;0.08;;;0.08;;
80679;SDS011;70043;51.982;-8.514;2023-08-31T02:59:21;0.00;;;0.00;;
80679;SDS011;70043;51.982;-8.514;2023-08-31T03:01:48;0.10;;;0.00;;
80679;SDS011;70043;51.982;-8.514;2023-08-31T03:04:17;0.20;;;0.10;;
80679;SDS011;70043;51.982;-8.514;2023-08-31T03:06:44;0.05;;;0.00;;
80679;SDS011;70043;51.982;-8.514;2023-08-31T03:09:11;0.10;;;0.03;;
80679;SDS011;70043;51.982;-8.514;2023-08-31T03:11:39;0.30;;;0.10;;
80679;SDS011;70043;51.982;-8.514;2023-08-31T03:14:06;0.30;;;0.10;;
80679;SDS011;70043;51.982;-8.514;2023-08-31T03:16:34;0.30;;;0.10;;
80679;SDS011;70043;51.982;-8.514;2023-08-31T03:19:01;0.40;;;0.20;;
80679;SDS011;70043;51.982;-8.514;2023-08-31T03:21:30;0.10;;;0.10;;
80679;SDS011;70043;51.982;-8.514;2023-08-31T03:23:57;0.00;;;0.00;;
80679;SDS011;70043;51.982;-8.514;2023-08-31T03:29:27;0.00;;;0.00;;
80679;SDS011;70043;51.982;-8.514;2023-08-31T03:31:56;0.30;;;0.00;;
80679;SDS011;70043;51.982;-8.514;2023-08-31T03:34:23;0.10;;;0.10;;
80679;SDS011;70043;51.982;-8.514;2023-08-31T03:36:52;0.00;;;0.00;;
80679;SDS011;70043;51.982;-8.514;2023-08-31T03:39:19;0.08;;;0.00;;
80679;SDS011;70043;51.982;-8.514;2023-08-31T03:41:47;0.00;;;0.00;;
80679;SDS011;70043;51.982;-8.514;2023-08-31T03:44:15;1.80;;;0.05;;
80679;SDS011;70043;51.982;-8.514;2023-08-31T03:46:42;0.00;;;0.00;;
80679;SDS011;70043;51.982;-8.514;2023-08-31T03:49:09;0.00;;;0.00;;
80679;SDS011;70043;51.982;-8.514;2023-08-31T03:51:36;0.00;;;0.00;;
80679;SDS011;70043;51.982;-8.514;2023-08-31T03:54:04;0.55;;;0.10;;
80679;SDS011;70043;51.982;-8.514;2023-08-31T03:56:34;0.00;;;0.00;;
80679;SDS011;70043;51.982;-8.514;2023-08-31T03:59:02;0.03;;;0.00;;
80679;SDS011;70043;51.982;-8.514;2023-08-31T04:01:30;0.28;;;0.10;;
80679;SDS011;70043;51.982;-8.514;2023-08-31T04:03:57;0.03;;;0.00;;
80679;SDS011;70043;51.982;-8.514;2023-08-31T04:06:24;0.32;;;0.00;;
80679;SDS011;70043;51.982;-8.514;2023-08-31T04:08:52;0.10;;;0.10;;
80679;SDS011;70043;51.982;-8.514;2023-08-31T04:11:22;0.15;;;0.15;;
80679;SDS011;70043;51.982;-8.514;2023-08-31T04:13:49;0.13;;;0.00;;
80679;SDS011;70043;51.982;-8.514;2023-08-31T04:16:16;0.28;;;0.10;;
80679;SDS011;70043;51.982;-8.514;2023-08-31T04:18:43;0.30;;;0.10;;
80679;SDS011;70043;51.982;-8.514;2023-08-31T04:21:16;0.00;;;0.00;;
80679;SDS011;70043;51.982;-8.514;2023-08-31T04:23:43;0.00;;;0.00;;
80679;SDS011;70043;51.982;-8.514;2023-08-31T04:26:13;0.00;;;0.00;;
80679;SDS011;70043;51.982;-8.514;2023-08-31T04:28:42;0.10;;;0.03;;
80679;SDS011;70043;51.982;-8.514;2023-08-31T04:31:10;0.10;;;0.03;;
80679;SDS011;70043;51.982;-8.514;2023-08-31T04:33:37;0.35;;;0.10;;
80679;SDS011;70043;51.982;-8.514;2023-08-31T04:36:05;0.03;;;0.00;;
80679;SDS011;70043;51.982;-8.514;2023-08-31T04:38:32;0.00;;;0.00;;
80679;SDS011;70043;51.982;-8.514;2023-08-31T04:40:59;0.25;;;0.03;;
80679;SDS011;70043;51.982;-8.514;2023-08-31T04:43:28;0.10;;;0.00;;
80679;SDS011;70043;51.982;-8.514;2023-08-31T04:45:57;0.00;;;0.00;;
80679;SDS011;70043;51.982;-8.514;2023-08-31T04:48:23;0.00;;;0.00;;
80679;SDS011;70043;51.982;-8.514;2023-08-31T04:50:55;0.10;;;0.00;;
80679;SDS011;70043;51.982;-8.514;2023-08-31T04:53:23;0.20;;;0.20;;
80679;SDS011;70043;51.982;-8.514;2023-08-31T04:55:50;0.00;;;0.00;;
80679;SDS011;70043;51.982;-8.514;2023-08-31T04:58:16;0.00;;;0.00;;
80679;SDS011;70043;51.982;-8.514;2023-08-31T05:00:44;0.00;;;0.00;;
80679;SDS011;70043;51.982;-8.514;2023-08-31T05:03:14;0.00;;;0.00;;
80679;SDS011;70043;51.982;-8.514;2023-08-31T05:05:41;0.00;;;0.00;;
80679;SDS011;70043;51.982;-8.514;2023-08-31T05:08:09;0.00;;;0.00;;
80679;SDS011;70043;51.982;-8.514;2023-08-31T05:10:36;0.00;;;0.00;;
80679;SDS011;70043;51.982;-8.514;2023-08-31T05:13:04;0.00;;;0.00;;
80679;SDS011;70043;51.982;-8.514;2023-08-31T05:15:31;0.05;;;0.00;;
80679;SDS011;70043;51.982;-8.514;2023-08-31T05:17:59;0.17;;;0.00;;
80679;SDS011;70043;51.982;-8.514;2023-08-31T05:20:27;0.00;;;0.00;;
80679;SDS011;70043;51.982;-8.514;2023-08-31T05:22:54;0.00;;;0.00;;
80679;SDS011;70043;51.982;-8.514;2023-08-31T05:25:21;0.00;;;0.00;;
80679;SDS011;70043;51.982;-8.514;2023-08-31T05:27:48;0.00;;;0.00;;
80679;SDS011;70043;51.982;-8.514;2023-08-31T05:30:15;0.00;;;0.00;;
80679;SDS011;70043;51.982;-8.514;2023-08-31T05:32:42;0.00;;;0.00;;
80679;SDS011;70043;51.982;-8.514;2023-08-31T05:35:09;0.00;;;0.00;;
80679;SDS011;70043;51.982;-8.514;2023-08-31T05:37:37;0.00;;;0.00;;
80679;SDS011;70043;51.982;-8.514;2023-08-31T05:40:06;0.00;;;0.00;;
80679;SDS011;70043;51.982;-8.514;2023-08-31T05:42:36;0.00;;;0.00;;
80679;SDS011;70043;51.982;-8.514;2023-08-31T05:45:03;0.00;;;0.00;;
80679;SDS011;70043;51.982;-8.514;2023-08-31T05:47:31;0.00;;;0.00;;
80679;SDS011;70043;51.982;-8.514;2023-08-31T05:50:01;0.00;;;0.00;;
80679;SDS011;70043;51.982;-8.514;2023-08-31T05:52:29;0.00;;;0.00;;
80679;SDS011;70043;51.982;-8.514;2023-08-31T05:54:57;0.00;;;0.00;;
80679;SDS011;70043;51.982;-8.514;2023-08-31T05:57:25;0.00;;;0.00;;
80679;SDS011;70043;51.982;-8.514;2023-08-31T05:59:52;0.40;;;0.10;;
80679;SDS011;70043;51.982;-8.514;2023-08-31T06:02:19;0.10;;;0.00;;
80679;SDS011;70043;51.982;-8.514;2023-08-31T06:04:47;0.00;;;0.00;;
80679;SDS011;70043;51.982;-8.514;2023-08-31T06:07:14;0.00;;;0.00;;
80679;SDS011;70043;51.982;-8.514;2023-08-31T06:09:41;0.00;;;0.00;;
80679;SDS011;70043;51.982;-8.514;2023-08-31T06:12:13;0.00;;;0.00;;
80679;SDS011;70043;51.982;-8.514;2023-08-31T06:14:40;0.00;;;0.00;;
80679;SDS011;70043;51.982;-8.514;2023-08-31T06:17:06;0.00;;;0.00;;
80679;SDS011;70043;51.982;-8.514;2023-08-31T06:19:34;0.00;;;0.00;;
80679;SDS011;70043;51.982;-8.514;2023-08-31T06:22:03;0.00;;;0.00;;
80679;SDS011;70043;51.982;-8.514;2023-08-31T06:24:29;0.00;;;0.00;;
80679;SDS011;70043;51.982;-8.514;2023-08-31T06:26:57;0.00;;;0.00;;
80679;SDS011;70043;51.982;-8.514;2023-08-31T06:29:26;0.00;;;0.00;;
80679;SDS011;70043;51.982;-8.514;2023-08-31T06:31:53;0.00;;;0.00;;
80679;SDS011;70043;51.982;-8.514;2023-08-31T06:34:20;0.40;;;0.10;;
80679;SDS011;70043;51.982;-8.514;2023-08-31T06:36:49;0.00;;;0.00;;
80679;SDS011;70043;51.982;-8.514;2023-08-31T06:39:16;0.00;;;0.00;;
80679;SDS011;70043;51.982;-8.514;2023-08-31T06:41:43;0.00;;;0.00;;
80679;SDS011;70043;51.982;-8.514;2023-08-31T06:44:09;0.13;;;0.08;;
80679;SDS011;70043;51.982;-8.514;2023-08-31T06:46:48;0.00;;;0.00;;
80679;SDS011;70043;51.982;-8.514;2023-08-31T06:49:16;0.00;;;0.00;;
80679;SDS011;70043;51.982;-8.514;2023-08-31T06:51:43;0.00;;;0.00;;
80679;SDS011;70043;51.982;-8.514;2023-08-31T06:54:10;0.00;;;0.00;;
80679;SDS011;70043;51.982;-8.514;2023-08-31T06:56:38;0.20;;;0.00;;
80679;SDS011;70043;51.982;-8.514;2023-08-31T06:59:06;0.15;;;0.00;;
80679;SDS011;70043;51.982;-8.514;2023-08-31T07:01:33;0.00;;;0.00;;
80679;SDS011;70043;51.982;-8.514;2023-08-31T07:04:03;0.00;;;0.00;;
80679;SDS011;70043;51.982;-8.514;2023-08-31T07:06:31;0.45;;;0.00;;
80679;SDS011;70043;51.982;-8.514;2023-08-31T07:08:58;0.00;;;0.00;;
80679;SDS011;70043;51.982;-8.514;2023-08-31T07:11:26;0.03;;;0.00;;
80679;SDS011;70043;51.982;-8.514;2023-08-31T07:13:53;0.00;;;0.00;;
80679;SDS011;70043;51.982;-8.514;2023-08-31T07:16:22;0.00;;;0.00;;
80679;SDS011;70043;51.982;-8.514;2023-08-31T07:18:49;0.00;;;0.00;;
80679;SDS011;70043;51.982;-8.514;2023-08-31T07:21:18;0.00;;;0.00;;
80679;SDS011;70043;51.982;-8.514;2023-08-31T07:23:45;0.00;;;0.00;;
80679;SDS011;70043;51.982;-8.514;2023-08-31T07:26:11;1.65;;;0.00;;
80679;SDS011;70043;51.982;-8.514;2023-08-31T07:28:39;0.00;;;0.00;;
80679;SDS011;70043;51.982;-8.514;2023-08-31T07:31:06;0.15;;;0.03;;
80679;SDS011;70043;51.982;-8.514;2023-08-31T07:33:34;0.05;;;0.00;;
80679;SDS011;70043;51.982;-8.514;2023-08-31T07:36:01;0.10;;;0.03;;
80679;SDS011;70043;51.982;-8.514;2023-08-31T07:38:31;0.00;;;0.00;;
80679;SDS011;70043;51.982;-8.514;2023-08-31T07:40:58;0.10;;;0.00;;
80679;SDS011;70043;51.982;-8.514;2023-08-31T07:43:25;0.00;;;0.00;;
80679;SDS011;70043;51.982;-8.514;2023-08-31T07:45:52;1.98;;;0.10;;
80679;SDS011;70043;51.982;-8.514;2023-08-31T07:48:19;0.05;;;0.03;;
80679;SDS011;70043;51.982;-8.514;2023-08-31T07:50:46;0.08;;;0.00;;
80679;SDS011;70043;51.982;-8.514;2023-08-31T07:53:14;0.00;;;0.00;;
80679;SDS011;70043;51.982;-8.514;2023-08-31T07:55:50;0.22;;;0.10;;
80679;SDS011;70043;51.982;-8.514;2023-08-31T07:58:16;0.25;;;0.10;;
80679;SDS011;70043;51.982;-8.514;2023-08-31T08:00:43;1.65;;;0.15;;
80679;SDS011;70043;51.982;-8.514;2023-08-31T08:03:10;1.50;;;0.30;;
80679;SDS011;70043;51.982;-8.514;2023-08-31T08:05:38;0.85;;;0.22;;
80679;SDS011;70043;51.982;-8.514;2023-08-31T08:08:06;2.22;;;0.40;;
80679;SDS011;70043;51.982;-8.514;2023-08-31T08:10:33;2.22;;;2.05;;
80679;SDS011;70043;51.982;-8.514;2023-08-31T08:13:02;0.90;;;0.17;;
80679;SDS011;70043;51.982;-8.514;2023-08-31T08:15:29;1.35;;;0.35;;
80679;SDS011;70043;51.982;-8.514;2023-08-31T08:17:56;0.40;;;0.20;;
80679;SDS011;70043;51.982;-8.514;2023-08-31T08:20:23;1.60;;;0.30;;
80679;SDS011;70043;51.982;-8.514;2023-08-31T08:22:50;0.85;;;0.20;;
80679;SDS011;70043;51.982;-8.514;2023-08-31T08:25:18;1.58;;;0.20;;
80679;SDS011;70043;51.982;-8.514;2023-08-31T08:27:45;0.82;;;0.25;;
80679;SDS011;70043;51.982;-8.514;2023-08-31T08:30:14;0.28;;;0.10;;
80679;SDS011;70043;51.982;-8.514;2023-08-31T08:32:42;0.65;;;0.20;;
80679;SDS011;70043;51.982;-8.514;2023-08-31T08:35:09;1.40;;;0.30;;
80679;SDS011;70043;51.982;-8.514;2023-08-31T08:37:36;0.38;;;0.17;;
80679;SDS011;70043;51.982;-8.514;2023-08-31T08:40:04;0.50;;;0.20;;
80679;SDS011;70043;51.982;-8.514;2023-08-31T08:42:32;0.50;;;0.10;;
80679;SDS011;70043;51.982;-8.514;2023-08-31T08:45:01;1.65;;;0.30;;
80679;SDS011;70043;51.982;-8.514;2023-08-31T08:47:29;1.00;;;0.28;;
80679;SDS011;70043;51.982;-8.514;2023-08-31T08:49:59;5.20;;;0.40;;
80679;SDS011;70043;51.982;-8.514;2023-08-31T08:52:26;0.60;;;0.30;;
80679;SDS011;70043;51.982;-8.514;2023-08-31T08:54:53;0.38;;;0.10;;
80679;SDS011;70043;51.982;-8.514;2023-08-31T08:57:20;0.47;;;0.30;;
80679;SDS011;70043;51.982;-8.514;2023-08-31T08:59:47;0.60;;;0.30;;
80679;SDS011;70043;51.982;-8.514;2023-08-31T09:02:14;1.42;;;0.43;;
80679;SDS011;70043;51.982;-8.514;2023-08-31T09:04:43;0.80;;;0.30;;
80679;SDS011;70043;51.982;-8.514;2023-08-31T09:07:11;0.57;;;0.30;;
80679;SDS011;70043;51.982;-8.514;2023-08-31T09:09:51;0.65;;;0.50;;
80679;SDS011;70043;51.982;-8.514;2023-08-31T09:12:18;1.25;;;0.50;;
80679;SDS011;70043;51.982;-8.514;2023-08-31T09:14:56;0.57;;;0.30;;
80679;SDS011;70043;51.982;-8.514;2023-08-31T09:17:23;0.52;;;0.22;;
80679;SDS011;70043;51.982;-8.514;2023-08-31T09:20:00;0.65;;;0.32;;
80679;SDS011;70043;51.982;-8.514;2023-08-31T09:24:55;1.17;;;0.30;;
80679;SDS011;70043;51.982;-8.514;2023-08-31T09:27:22;2.72;;;0.30;;
80679;SDS011;70043;51.982;-8.514;2023-08-31T09:29:50;1.17;;;0.60;;
80679;SDS011;70043;51.982;-8.514;2023-08-31T09:32:17;1.38;;;0.30;;
80679;SDS011;70043;51.982;-8.514;2023-08-31T09:34:44;0.65;;;0.35;;
80679;SDS011;70043;51.982;-8.514;2023-08-31T09:37:14;1.33;;;0.40;;
80679;SDS011;70043;51.982;-8.514;2023-08-31T09:39:42;0.90;;;0.55;;
80679;SDS011;70043;51.982;-8.514;2023-08-31T09:42:09;0.95;;;0.28;;
80679;SDS011;70043;51.982;-8.514;2023-08-31T09:44:39;3.60;;;0.70;;
80679;SDS011;70043;51.982;-8.514;2023-08-31T09:47:07;1.13;;;0.50;;
80679;SDS011;70043;51.982;-8.514;2023-08-31T09:49:38;0.93;;;0.30;;
80679;SDS011;70043;51.982;-8.514;2023-08-31T09:52:05;3.17;;;0.32;;
80679;SDS011;70043;51.982;-8.514;2023-08-31T09:54:34;0.30;;;0.10;;
80679;SDS011;70043;51.982;-8.514;2023-08-31T09:57:03;2.03;;;0.60;;
80679;SDS011;70043;51.982;-8.514;2023-08-31T09:59:31;1.27;;;0.35;;
80679;SDS011;70043;51.982;-8.514;2023-08-31T10:02:00;0.90;;;0.40;;
80679;SDS011;70043;51.982;-8.514;2023-08-31T10:04:29;1.23;;;0.17;;
80679;SDS011;70043;51.982;-8.514;2023-08-31T10:06:57;1.17;;;0.40;;
80679;SDS011;70043;51.982;-8.514;2023-08-31T10:09:25;0.43;;;0.20;;
80679;SDS011;70043;51.982;-8.514;2023-08-31T10:11:54;0.57;;;0.40;;
80679;SDS011;70043;51.982;-8.514;2023-08-31T10:14:24;2.45;;;0.65;;
80679;SDS011;70043;51.982;-8.514;2023-08-31T10:16:51;0.73;;;0.32;;
80679;SDS011;70043;51.982;-8.514;2023-08-31T10:19:20;2.38;;;0.45;;
80679;SDS011;70043;51.982;-8.514;2023-08-31T10:21:49;1.20;;;0.30;;
80679;SDS011;70043;51.982;-8.514;2023-08-31T10:24:16;2.47;;;0.30;;
80679;SDS011;70043;51.982;-8.514;2023-08-31T10:26:43;0.98;;;0.30;;
80679;SDS011;70043;51.982;-8.514;2023-08-31T10:31:58;1.40;;;0.30;;
80679;SDS011;70043;51.982;-8.514;2023-08-31T10:34:37;2.00;;;0.40;;
80679;SDS011;70043;51.982;-8.514;2023-08-31T10:37:19;3.80;;;0.47;;
80679;SDS011;70043;51.982;-8.514;2023-08-31T10:39:49;2.60;;;0.50;;
80679;SDS011;70043;51.982;-8.514;2023-08-31T10:42:32;2.08;;;0.50;;
80679;SDS011;70043;51.982;-8.514;2023-08-31T10:45:05;1.52;;;0.40;;
80679;SDS011;70043;51.982;-8.514;2023-08-31T10:47:40;1.83;;;0.50;;
80679;SDS011;70043;51.982;-8.514;2023-08-31T10:53:04;4.13;;;0.43;;
80679;SDS011;70043;51.982;-8.514;2023-08-31T10:55:34;1.10;;;0.30;;
80679;SDS011;70043;51.982;-8.514;2023-08-31T10:58:02;1.38;;;0.50;;
80679;SDS011;70043;51.982;-8.514;2023-08-31T11:00:50;1.33;;;0.40;;
80679;SDS011;70043;51.982;-8.514;2023-08-31T11:03:20;3.15;;;0.47;;
80679;SDS011;70043;51.982;-8.514;2023-08-31T11:05:52;1.70;;;0.43;;
80679;SDS011;70043;51.982;-8.514;2023-08-31T11:08:27;2.50;;;0.40;;
80679;SDS011;70043;51.982;-8.514;2023-08-31T11:10:54;3.03;;;0.40;;
80679;SDS011;70043;51.982;-8.514;2023-08-31T11:13:21;1.55;;;0.52;;
80679;SDS011;70043;51.982;-8.514;2023-08-31T11:15:49;1.25;;;0.30;;
80679;SDS011;70043;51.982;-8.514;2023-08-31T11:18:17;1.60;;;0.32;;
80679;SDS011;70043;51.982;-8.514;2023-08-31T11:20:49;2.60;;;0.70;;
80679;SDS011;70043;51.982;-8.514;2023-08-31T11:23:16;1.45;;;0.60;;
80679;SDS011;70043;51.982;-8.514;2023-08-31T11:25:49;0.60;;;0.25;;
80679;SDS011;70043;51.982;-8.514;2023-08-31T11:28:23;1.42;;;0.60;;
80679;SDS011;70043;51.982;-8.514;2023-08-31T11:30:51;0.80;;;0.50;;
80679;SDS011;70043;51.982;-8.514;2023-08-31T11:33:18;2.33;;;0.40;;
80679;SDS011;70043;51.982;-8.514;2023-08-31T11:35:45;1.25;;;0.30;;
80679;SDS011;70043;51.982;-8.514;2023-08-31T11:38:14;0.93;;;0.38;;
80679;SDS011;70043;51.982;-8.514;2023-08-31T11:40:43;1.70;;;0.47;;
80679;SDS011;70043;51.982;-8.514;2023-08-31T11:43:10;0.60;;;0.50;;
80679;SDS011;70043;51.982;-8.514;2023-08-31T11:45:38;1.95;;;0.43;;
80679;SDS011;70043;51.982;-8.514;2023-08-31T11:48:11;0.75;;;0.22;;
80679;SDS011;70043;51.982;-8.514;2023-08-31T11:50:48;1.13;;;0.32;;
80679;SDS011;70043;51.982;-8.514;2023-08-31T11:53:19;0.60;;;0.30;;
80679;SDS011;70043;51.982;-8.514;2023-08-31T11:55:51;1.13;;;0.40;;
80679;SDS011;70043;51.982;-8.514;2023-08-31T11:58:21;0.95;;;0.30;;
80679;SDS011;70043;51.982;-8.514;2023-08-31T12:00:57;1.38;;;0.40;;
80679;SDS011;70043;51.982;-8.514;2023-08-31T12:03:26;0.90;;;0.30;;
80679;SDS011;70043;51.982;-8.514;2023-08-31T12:05:54;0.85;;;0.30;;
80679;SDS011;70043;51.982;-8.514;2023-08-31T12:08:25;0.70;;;0.10;;
80679;SDS011;70043;51.982;-8.514;2023-08-31T12:10:52;2.90;;;0.20;;
80679;SDS011;70043;51.982;-8.514;2023-08-31T12:13:25;0.63;;;0.30;;
80679;SDS011;70043;51.982;-8.514;2023-08-31T12:16:11;0.47;;;0.22;;
80679;SDS011;70043;51.982;-8.514;2023-08-31T12:18:37;0.30;;;0.10;;
80679;SDS011;70043;51.982;-8.514;2023-08-31T12:21:05;1.95;;;0.45;;
80679;SDS011;70043;51.982;-8.514;2023-08-31T12:23:43;0.35;;;0.15;;
80679;SDS011;70043;51.982;-8.514;2023-08-31T12:26:10;1.63;;;0.40;;
80679;SDS011;70043;51.982;-8.514;2023-08-31T12:28:37;3.10;;;0.30;;
80679;SDS011;70043;51.982;-8.514;2023-08-31T12:31:06;0.70;;;0.20;;
80679;SDS011;70043;51.982;-8.514;2023-08-31T12:33:47;1.27;;;0.30;;
80679;SDS011;70043;51.982;-8.514;2023-08-31T12:36:16;0.73;;;0.30;;
80679;SDS011;70043;51.982;-8.514;2023-08-31T12:38:49;0.43;;;0.20;;
80679;SDS011;70043;51.982;-8.514;2023-08-31T12:41:17;0.98;;;0.13;;
80679;SDS011;70043;51.982;-8.514;2023-08-31T12:43:45;1.67;;;0.20;;
80679;SDS011;70043;51.982;-8.514;2023-08-31T12:46:12;0.60;;;0.30;;
80679;SDS011;70043;51.982;-8.514;2023-08-31T12:48:40;1.60;;;0.35;;
80679;SDS011;70043;51.982;-8.514;2023-08-31T12:51:08;0.50;;;0.30;;
80679;SDS011;70043;51.982;-8.514;2023-08-31T12:53:47;0.40;;;0.10;;
80679;SDS011;70043;51.982;-8.514;2023-08-31T12:56:14;1.30;;;0.30;;
80679;SDS011;70043;51.982;-8.514;2023-08-31T12:58:47;0.50;;;0.20;;
80679;SDS011;70043;51.982;-8.514;2023-08-31T13:01:17;0.75;;;0.30;;
80679;SDS011;70043;51.982;-8.514;2023-08-31T13:03:44;2.17;;;0.28;;
80679;SDS011;70043;51.982;-8.514;2023-08-31T13:06:12;0.30;;;0.20;;
80679;SDS011;70043;51.982;-8.514;2023-08-31T13:08:41;1.20;;;0.20;;
80679;SDS011;70043;51.982;-8.514;2023-08-31T13:11:13;1.27;;;0.30;;
80679;SDS011;70043;51.982;-8.514;2023-08-31T13:13:47;0.10;;;0.10;;
80679;SDS011;70043;51.982;-8.514;2023-08-31T13:16:14;1.73;;;0.40;;
80679;SDS011;70043;51.982;-8.514;2023-08-31T13:18:41;0.30;;;0.10;;
80679;SDS011;70043;51.982;-8.514;2023-08-31T13:21:09;1.50;;;0.30;;
80679;SDS011;70043;51.982;-8.514;2023-08-31T13:23:39;1.40;;;0.47;;
80679;SDS011;70043;51.982;-8.514;2023-08-31T13:26:21;1.50;;;0.50;;
80679;SDS011;70043;51.982;-8.514;2023-08-31T13:28:48;0.15;;;0.00;;
80679;SDS011;70043;51.982;-8.514;2023-08-31T13:31:15;1.27;;;0.22;;
80679;SDS011;70043;51.982;-8.514;2023-08-31T13:33:46;1.13;;;0.10;;
80679;SDS011;70043;51.982;-8.514;2023-08-31T13:36:15;0.60;;;0.30;;
80679;SDS011;70043;51.982;-8.514;2023-08-31T13:38:42;5.68;;;0.40;;
80679;SDS011;70043;51.982;-8.514;2023-08-31T13:41:10;1.55;;;0.20;;
80679;SDS011;70043;51.982;-8.514;2023-08-31T13:43:39;2.47;;;0.20;;
80679;SDS011;70043;51.982;-8.514;2023-08-31T13:46:06;1.13;;;0.15;;
80679;SDS011;70043;51.982;-8.514;2023-08-31T13:48:33;1.77;;;0.20;;
80679;SDS011;70043;51.982;-8.514;2023-08-31T13:51:00;0.65;;;0.30;;
80679;SDS011;70043;51.982;-8.514;2023-08-31T13:53:27;0.47;;;0.20;;
80679;SDS011;70043;51.982;-8.514;2023-08-31T13:55:54;0.22;;;0.10;;
80679;SDS011;70043;51.982;-8.514;2023-08-31T13:58:21;0.73;;;0.28;;
80679;SDS011;70043;51.982;-8.514;2023-08-31T14:00:50;2.33;;;0.35;;
80679;SDS011;70043;51.982;-8.514;2023-08-31T14:03:17;0.52;;;0.10;;
80679;SDS011;70043;51.982;-8.514;2023-08-31T14:05:46;0.60;;;0.30;;
80679;SDS011;70043;51.982;-8.514;2023-08-31T14:08:15;1.00;;;0.30;;
80679;SDS011;70043;51.982;-8.514;2023-08-31T14:10:44;1.15;;;0.20;;
80679;SDS011;70043;51.982;-8.514;2023-08-31T14:13:13;1.70;;;0.30;;
80679;SDS011;70043;51.982;-8.514;2023-08-31T14:15:44;1.38;;;0.43;;
80679;SDS011;70043;51.982;-8.514;2023-08-31T14:18:14;0.43;;;0.10;;
80679;SDS011;70043;51.982;-8.514;2023-08-31T14:20:41;3.55;;;0.40;;
80679;SDS011;70043;51.982;-8.514;2023-08-31T14:23:09;0.77;;;0.28;;
80679;SDS011;70043;51.982;-8.514;2023-08-31T14:25:36;0.25;;;0.10;;
80679;SDS011;70043;51.982;-8.514;2023-08-31T14:28:04;0.98;;;0.28;;
80679;SDS011;70043;51.982;-8.514;2023-08-31T14:30:31;0.60;;;0.10;;
80679;SDS011;70043;51.982;-8.514;2023-08-31T14:32:58;1.25;;;0.20;;
80679;SDS011;70043;51.982;-8.514;2023-08-31T14:35:31;0.43;;;0.10;;
80679;SDS011;70043;51.982;-8.514;2023-08-31T14:37:58;0.45;;;0.30;;
80679;SDS011;70043;51.982;-8.514;2023-08-31T14:40:26;0.73;;;0.22;;
80679;SDS011;70043;51.982;-8.514;2023-08-31T14:42:53;0.95;;;0.30;;
80679;SDS011;70043;51.982;-8.514;2023-08-31T14:45:21;0.50;;;0.15;;
80679;SDS011;70043;51.982;-8.514;2023-08-31T14:47:48;0.40;;;0.20;;
80679;SDS011;70043;51.982;-8.514;2023-08-31T14:50:15;3.60;;;0.30;;
80679;SDS011;70043;51.982;-8.514;2023-08-31T14:52:44;0.80;;;0.30;;
80679;SDS011;70043;51.982;-8.514;2023-08-31T14:55:17;1.08;;;0.20;;